Monticello, Missouri
Current Conditions -  °F | °C
As of 4:35 PM on Monday 22 Dec 2014 (Local Time) from KEOK Reporting Station
Light Rain Light Rain  
Wind Chill: 37°   Ceiling: 300
Heat Index: 43°   Visibility: 0.75mi
Dew Point: 43°   Wind: 9mph
Humidity: 100%   Direction: 120°ESE
Pressure: 29.51"   Gusts: NA
Location:  40.12°N, 91.71°W
Report Text: KEOK 222235Z AUTO 12008KT 3/4SM -RA OVC003 06/06 A2951 RMK AO2
Loading
Personal Weather Stations






























Interactive Weather Map New forecast layout! Learn more

10-Day Weather Forecast

Advertisements
Track Severe Weather on mobile